EGXCEGOV

Guest
Details From EGXC - RAF Coningsby
To EGOV - RAF Valley
Flight Number -
Tags generated
Created
Modified
Stats Distance 158 nm / 292 km
Max Altitude 20,300 ft / 6,187 m
Waypoints 3
Social Downloads 0
Likes 0
Share VATSIM

Download

Looking for another format? Having issues loading an existing format? Contact us
Advertisement - Login to hide

Notes

Basic altitude profile: - Ascent Rate: 6000ft/min - Ascent Speed: 350kts - Cruise Altitude: 470000ft - Cruise Speed: 420kts - Descent Rate: 6000ft/min - Descent Speed: 350kts Options: - Use NATs: yes - Use PACOTS: yes - Use low airways: no - Use high airways: yes

Route

EGXC TIPIL EGOV

ID Type Via Altitude Latitude Longitude Leg Dist Tot Dist Heading (true) Name
O EGXC APT - 0 ft / 0 m 53.09316˚ -0.16613˚ - 0 nm - RAF Coningsby
TIPIL FIX - 20,300 ft / 6,187 m 53.16667˚ -1.73972˚ 56 nm 56 nm 275° / 274° -
O EGOV APT - 0 ft / 0 m 53.24853˚ -4.53647˚ 100 nm 157 nm 274° / 272° RAF Valley

Altitude Profile

Advertisement - Login to hide

EGXC

Details ICAO EGXC (QCY)
Name RAF Coningsby
Region United Kingdom
Timezone Europe/London (UTC+1.0)
Stats Elevation 25 ft / 8 m (AMSL)
Location 53.093165° -0.166128°
Runways 1
Magnetic Variation 0.573° W

METAR

EGXC 251450Z 05008KT 5000 HZ OVC005 15/14 Q1019 YLO1

Decode

TAF

TAF EGXC 251337Z 2515/2609 06008KT 6000 HZ OVC005 PROB30 2515/2517 BKN007 BECMG 2517/2520 BKN004 BECMG 2520/2523 2000 BR BKN002 PROB40 2602/2605 5000 BKN007 BECMG 2605/2608 9999 NSW SCT030

Decode

Departure Runways

ID Width Length Bearing (true) Bearing (mag) Surface Threshold Offset Overrun Length
08 200 ft / 61 m 8,962 ft / 2,732 m 71.85° 72.42° Concrete 0 ft / 0 m 0 ft / 0 m
26 200 ft / 61 m 8,962 ft / 2,732 m 251.89° 252.46° Concrete 0 ft / 0 m 0 ft / 0 m

EGOV

Details ICAO EGOV (HLY)
Name RAF Valley
Region United Kingdom
Timezone Europe/London (UTC+1.0)
Stats Elevation 37 ft / 11 m (AMSL)
Location 53.248528° -4.536473°
Runways 3
Magnetic Variation 2.240° W

METAR

EGOV 251450Z 05016KT CAVOK 19/11 Q1020 BLU NOSIG

Decode

TAF

Not found

Destination Runways

ID Width Length Bearing (true) Bearing (mag) Surface Threshold Offset Overrun Length
01 157 ft / 48 m 5,470 ft / 1,667 m 6.15° 8.39° Asphalt 72 ft / 22 m 7 ft / 2 m
08 154 ft / 47 m 4,174 ft / 1,272 m 69.67° 71.91° Asphalt 702 ft / 214 m 0 ft / 0 m
14 154 ft / 47 m 7,551 ft / 2,302 m 130.54° 132.78° Asphalt 59 ft / 18 m 0 ft / 0 m
19 157 ft / 48 m 5,470 ft / 1,667 m 186.16° 188.40° Asphalt 213 ft / 65 m 0 ft / 0 m
26 154 ft / 47 m 4,174 ft / 1,272 m 249.69° 251.93° Asphalt 400 ft / 122 m 0 ft / 0 m
32 154 ft / 47 m 7,551 ft / 2,302 m 310.56° 312.80° Asphalt 0 ft / 0 m 627 ft / 191 m

Approach Navaids

Runway Type Ident Frequency Range Bearing (true) Bearing (mag) Slope Elevation
14 Localiser VY 109.70 MHz 18 nm / 33 km 132.00° 134.24° - 37 ft / 11 m (AMSL)
14 Glidescope VY 109.70 MHz 10 nm / 19 km 132.00° 134.24° 3.00° 37 ft / 11 m (AMSL)

Popular Alternatives